London Corbin Airport Magee Field
KLOZ : now visible

Airfield :











YOU CAN JOIN US ON...

 
LOGIN :

Register | Disclaimer

   EN    FR    IT 

 









Legend :    VFR   Marginal VFR   IFR   Intensive IFR   Very Intensive IFR
Visi :
Ceiling :
>= 8 km
>= 3000ft
5 to 8 km
1000 to 3000 ft
1500m to 5 km
500 to 1000 ft
800 to 1500m
200 to 500 ft
< 800m
< 200 ft
Symbols :   Thunderstorms  Fog  Heavy snow  Heavy precipitations  Wind > 20 kt






- Airport Elevation : 1212 ft


KLOZ - London Corbin Magee Field

CURRENT METAR :
  • 172353Z AUTO 09003KT 10SM OVC100 03/M06 A3046 RMK AO2 SLP326 T00331061 10033 20017 56017

EXPIRED METARs :
  • 172253Z AUTO 08006KT 10SM BKN110 03/M07 A3047 RMK AO2 SLP326 T00331072
  • 172153Z AUTO 06008KT 10SM BKN120 03/M07 A3048 RMK AO2 SLP332 T00331072

TAF KLOZ
Valid from the 18 at 00:00 until the 19 at 00:00 UTC


172336Z 1800/1824 VRB04KT P6SM OVC100
FM181000 18008KT P6SM VCSH OVC060 WS020/19045KT
FM181800 20014G33KT P6SM -SHRA OVC020
FM182100 22012G27KT P6SM -SHRA OVC014
FM182200 25012G28KT P6SM OVC015



MET'MAP, your aeronautical weather chart ! - Copyright ORBIFLY December 2007 - Disclaimer

ORBIFLY MET'MAP TEAM :

Programming & Development : Alexandra Zaïnal
Concept & original design : Baudouin d'Aumeries
Assistance for programming : Marc-Olivier Méhu
Technical & hardware support : Manuel Goepfert

Contact : metmap@orbifly.com




SOURCES & CREDITS :

   NOAA       Earth
Advisory